Time;durP1;ratioP1;P1;durP2;ratioP2;P2;SDS_P1;SDS_P2;PMS_P1;PMS_P2;Temp;Humidity;BMP_temperature;BMP_pressure;BME280_temperature;BME280_humidity;BME280_pressure;Samples;Min_cycle;Max_cycle;Signal;HPM_P1;HPM_P2
2022/06/30 00:00:29;;;;;;;15.13;4.75;;;21.50;99.90;;;;;;5006176;28;20369;-67
2022/06/30 00:02:55;;;;;;;9.40;4.38;;;21.50;99.90;;;;;;5008654;28;20048;-67
2022/06/30 00:05:21;;;;;;;6.47;5.00;;;21.50;99.90;;;;;;4992567;28;20148;-66
2022/06/30 00:07:46;;;;;;;5.75;4.47;;;21.40;99.90;;;;;;5009223;28;20049;-67
2022/06/30 00:10:12;;;;;;;6.45;4.47;;;21.40;99.90;;;;;;5007101;28;20054;-66
2022/06/30 00:12:39;;;;;;;5.18;4.15;;;21.40;99.90;;;;;;5026372;28;20124;-67
2022/06/30 00:15:05;;;;;;;6.43;4.50;;;21.40;99.90;;;;;;5006785;28;20034;-66
2022/06/30 00:17:31;;;;;;;7.28;4.35;;;21.40;99.90;;;;;;5005916;28;20046;-66
2022/06/30 00:19:56;;;;;;;5.15;4.07;;;21.30;99.90;;;;;;5004422;28;20063;-66
2022/06/30 00:22:22;;;;;;;4.35;3.65;;;21.30;99.90;;;;;;5004278;28;20045;-66
2022/06/30 00:24:48;;;;;;;4.90;3.88;;;21.30;99.90;;;;;;5007470;28;20049;-66
2022/06/30 00:27:15;;;;;;;8.00;3.88;;;21.30;99.90;;;;;;5007959;28;20041;-67
2022/06/30 00:29:41;;;;;;;5.22;4.07;;;21.20;99.90;;;;;;5005086;28;20058;-66
2022/06/30 00:32:07;;;;;;;5.18;3.65;;;21.20;99.90;;;;;;5001909;28;20480;-66
2022/06/30 00:34:32;;;;;;;7.50;3.70;;;21.10;99.90;;;;;;5008783;28;20037;-66
2022/06/30 00:36:58;;;;;;;4.97;3.80;;;21.10;99.90;;;;;;5008881;28;20038;-66
2022/06/30 00:39:24;;;;;;;3.83;3.33;;;21.00;99.90;;;;;;5008063;28;20042;-66
2022/06/30 00:41:49;;;;;;;9.27;3.70;;;21.00;99.90;;;;;;5007220;28;20562;-65
2022/06/30 00:44:15;;;;;;;4.40;3.30;;;21.00;99.90;;;;;;5009973;28;20108;-66
2022/06/30 00:46:41;;;;;;;7.22;3.20;;;20.90;99.90;;;;;;5007130;28;20465;-65
2022/06/30 00:49:07;;;;;;;5.03;3.78;;;20.90;99.90;;;;;;5010313;28;20119;-65
2022/06/30 00:51:33;;;;;;;4.43;3.55;;;20.90;99.90;;;;;;5025320;28;20053;-64
2022/06/30 00:54:02;;;;;;;9.43;3.50;;;20.90;99.90;;;;;;5009244;28;20045;-65
2022/06/30 00:56:29;;;;;;;8.60;3.88;;;20.80;99.90;;;;;;5006525;28;20065;-66
2022/06/30 00:59:01;;;;;;;8.43;3.97;;;20.80;99.90;;;;;;5009867;28;20049;-67
2022/06/30 01:01:29;;;;;;;7.30;3.80;;;20.80;99.90;;;;;;5025441;28;20506;-67
2022/06/30 01:03:55;;;;;;;6.07;4.25;;;20.80;99.90;;;;;;5010500;28;20038;-66
2022/06/30 01:06:23;;;;;;;7.22;3.67;;;20.70;99.90;;;;;;5010660;28;20050;-66
2022/06/30 01:08:49;;;;;;;4.70;3.65;;;20.70;99.90;;;;;;5008804;28;20054;-66
2022/06/30 01:14:01;;;;;;;6.13;3.72;;;20.60;99.90;;;;;;5011434;28;20046;-65
2022/06/30 01:16:27;;;;;;;;;;;20.60;99.90;;;;;;5012133;28;20100;-67
2022/06/30 01:18:53;;;;;;;7.30;3.50;;;20.60;99.90;;;;;;5012208;28;19921;-66
2022/06/30 01:21:18;;;;;;;5.50;3.65;;;20.50;99.90;;;;;;5009793;28;20045;-66
2022/06/30 01:23:44;;;;;;;5.13;3.92;;;20.50;99.90;;;;;;5012494;28;20037;-66
2022/06/30 01:26:10;;;;;;;5.97;3.47;;;20.50;99.90;;;;;;5007707;28;20042;-67
2022/06/30 01:28:36;;;;;;;6.15;3.75;;;20.50;99.90;;;;;;5004527;28;20046;-67
2022/06/30 01:31:01;;;;;;;8.77;3.42;;;20.40;99.90;;;;;;5011635;28;20042;-66
2022/06/30 01:33:27;;;;;;;7.88;3.70;;;20.40;99.90;;;;;;5008893;28;20084;-67
2022/06/30 01:35:56;;;;;;;4.47;3.63;;;20.30;99.90;;;;;;5011414;28;20049;-67
2022/06/30 01:38:22;;;;;;;8.38;3.70;;;20.30;99.90;;;;;;5008491;28;20092;-66
2022/06/30 01:40:48;;;;;;;6.40;3.58;;;20.30;99.90;;;;;;5009093;28;20052;-67
2022/06/30 01:43:14;;;;;;;6.18;3.95;;;20.30;99.90;;;;;;5011203;28;20153;-67
2022/06/30 01:45:40;;;;;;;4.60;3.03;;;20.30;99.90;;;;;;5024558;28;20886;-66
2022/06/30 01:48:07;;;;;;;9.60;3.72;;;20.20;99.90;;;;;;5009865;28;20511;-66
2022/06/30 01:50:34;;;;;;;5.40;3.40;;;20.20;99.90;;;;;;5025495;28;20042;-66
2022/06/30 01:53:00;;;;;;;8.30;4.30;;;20.20;99.90;;;;;;5010443;28;20078;-66
2022/06/30 01:55:26;;;;;;;7.63;3.60;;;20.10;99.90;;;;;;5011512;28;20065;-66
2022/06/30 01:57:53;;;;;;;6.25;3.50;;;20.10;99.90;;;;;;5011313;28;20041;-67
2022/06/30 02:00:21;;;;;;;8.00;4.00;;;20.00;99.90;;;;;;5008795;28;20038;-67
2022/06/30 02:02:50;;;;;;;5.68;3.47;;;20.00;99.90;;;;;;5012959;28;20066;-67
2022/06/30 02:05:17;;;;;;;6.43;3.72;;;20.00;99.90;;;;;;5011876;28;20037;-66
2022/06/30 02:07:44;;;;;;;12.30;3.45;;;19.90;99.90;;;;;;5010800;28;20050;-66
2022/06/30 02:10:12;;;;;;;5.82;3.55;;;19.80;99.90;;;;;;5012734;28;20197;-66
2022/06/30 02:12:46;;;;;;;;;;;19.80;99.90;;;;;;5011029;28;20038;-67
2022/06/30 02:15:24;;;;;;;4.80;3.58;;;19.80;99.90;;;;;;5006087;28;20004;-66
2022/06/30 02:17:52;;;;;;;8.70;3.78;;;19.70;99.90;;;;;;5011781;28;20050;-66
2022/06/30 02:20:23;;;;;;;4.75;3.33;;;19.70;99.90;;;;;;5008607;28;20042;-68
2022/06/30 02:22:52;;;;;;;6.80;3.78;;;19.70;99.90;;;;;;5024362;28;20508;-66
2022/06/30 02:25:17;;;;;;;5.40;3.67;;;19.70;99.90;;;;;;5007835;28;20112;-67
2022/06/30 02:27:43;;;;;;;5.00;3.17;;;19.70;99.90;;;;;;5007769;28;20101;-66
2022/06/30 02:30:10;;;;;;;5.68;3.88;;;19.60;99.90;;;;;;5011191;28;20042;-67
2022/06/30 02:32:35;;;;;;;5.13;3.33;;;19.60;99.90;;;;;;5009910;28;20034;-66
2022/06/30 02:35:02;;;;;;;7.38;4.10;;;19.60;99.90;;;;;;5010019;28;20049;-66
2022/06/30 02:37:28;;;;;;;6.65;3.75;;;19.60;99.90;;;;;;5005693;28;20049;-67
2022/06/30 02:39:54;;;;;;;4.50;3.40;;;19.50;99.90;;;;;;5008329;28;20056;-66
2022/06/30 02:42:20;;;;;;;7.47;3.30;;;19.50;99.90;;;;;;5003202;28;20100;-67
2022/06/30 02:44:45;;;;;;;7.18;3.83;;;19.50;99.90;;;;;;5007278;28;20046;-66
2022/06/30 02:47:11;;;;;;;4.78;3.35;;;19.50;99.90;;;;;;5010115;28;20030;-67
2022/06/30 02:49:39;;;;;;;4.53;3.35;;;19.40;99.90;;;;;;5010549;28;20431;-66
2022/06/30 02:52:05;;;;;;;6.07;4.28;;;19.40;99.90;;;;;;5003627;28;20049;-66
2022/06/30 02:54:31;;;;;;;7.93;3.90;;;19.40;99.90;;;;;;5011787;28;20042;-66
2022/06/30 02:56:56;;;;;;;6.63;3.80;;;19.30;99.90;;;;;;5010187;28;20443;-66
2022/06/30 02:59:22;;;;;;;7.25;4.20;;;19.30;99.90;;;;;;5010100;28;20072;-66
2022/06/30 03:01:48;;;;;;;5.43;4.22;;;19.30;99.90;;;;;;5008636;28;20080;-66
2022/06/30 03:04:13;;;;;;;6.18;3.72;;;19.20;99.90;;;;;;5010779;28;20042;-66
2022/06/30 03:06:39;;;;;;;9.57;3.92;;;19.20;99.90;;;;;;5010027;28;20060;-67
2022/06/30 03:09:05;;;;;;;7.95;4.50;;;19.10;99.90;;;;;;5007566;28;20050;-65
2022/06/30 03:11:31;;;;;;;9.93;5.18;;;19.10;99.90;;;;;;5010651;28;20034;-67
2022/06/30 03:13:57;;;;;;;6.07;4.07;;;19.10;99.90;;;;;;5009807;28;20042;-67
2022/06/30 03:16:22;;;;;;;7.78;4.30;;;19.10;99.90;;;;;;5024122;28;20100;-67
2022/06/30 03:18:48;;;;;;;5.75;4.15;;;19.00;99.90;;;;;;5009404;28;20060;-66
2022/06/30 03:21:14;;;;;;;7.15;4.18;;;19.00;99.90;;;;;;5005254;28;20042;-65
2022/06/30 03:23:40;;;;;;;6.90;4.35;;;19.00;99.90;;;;;;5024999;28;21374;-66
2022/06/30 03:26:06;;;;;;;6.35;4.03;;;18.90;99.90;;;;;;5009012;28;20041;-67
2022/06/30 03:28:32;;;;;;;8.52;4.20;;;19.00;99.90;;;;;;5007481;28;20520;-68
2022/06/30 03:30:58;;;;;;;6.40;4.13;;;18.90;99.90;;;;;;5007557;28;20042;-67
2022/06/30 03:33:24;;;;;;;7.60;4.72;;;18.90;99.90;;;;;;5007095;28;20046;-66
2022/06/30 03:35:51;;;;;;;6.30;4.20;;;18.90;99.90;;;;;;5007930;28;20108;-67
2022/06/30 03:38:16;;;;;;;5.55;3.88;;;18.80;99.90;;;;;;5019155;28;20041;-67
2022/06/30 03:40:42;;;;;;;6.18;4.30;;;18.80;99.90;;;;;;5009009;28;20042;-67
2022/06/30 03:43:08;;;;;;;5.07;3.95;;;18.80;99.90;;;;;;5006721;28;20481;-66
2022/06/30 03:45:34;;;;;;;6.32;4.40;;;18.80;99.90;;;;;;5008761;28;20076;-66
2022/06/30 03:48:01;;;;;;;4.82;4.10;;;18.80;99.90;;;;;;5007983;28;20050;-66
2022/06/30 03:50:28;;;;;;;7.83;4.90;;;18.70;99.90;;;;;;5008947;28;20037;-66
2022/06/30 03:52:54;;;;;;;7.33;4.43;;;18.70;99.90;;;;;;5010838;28;20038;-66
2022/06/30 03:55:20;;;;;;;12.93;4.80;;;18.70;99.90;;;;;;5009639;28;20526;-66
2022/06/30 03:57:46;;;;;;;6.30;4.50;;;18.70;99.90;;;;;;5009395;28;20050;-66
2022/06/30 04:00:12;;;;;;;5.97;4.30;;;18.70;99.90;;;;;;5009772;28;20107;-67
2022/06/30 04:02:38;;;;;;;7.20;4.60;;;18.60;99.90;;;;;;5010476;28;20038;-66
2022/06/30 04:05:05;;;;;;;8.20;4.78;;;18.60;99.90;;;;;;4999382;28;20400;-67
2022/06/30 04:07:30;;;;;;;7.63;5.18;;;18.60;99.90;;;;;;5009374;28;20476;-66
2022/06/30 04:09:56;;;;;;;6.53;5.38;;;18.60;99.90;;;;;;5008230;28;20056;-67
2022/06/30 04:12:23;;;;;;;7.93;5.03;;;18.50;99.90;;;;;;5006495;28;20566;-65
2022/06/30 04:14:49;;;;;;;7.50;5.20;;;18.50;99.90;;;;;;5006757;28;20066;-66
2022/06/30 04:17:14;;;;;;;7.88;5.45;;;18.40;99.90;;;;;;5010555;28;20037;-66
2022/06/30 04:19:41;;;;;;;9.48;5.80;;;18.40;99.90;;;;;;5009894;28;20033;-66
2022/06/30 04:22:07;;;;;;;8.27;5.50;;;18.40;99.90;;;;;;5010076;28;20033;-66
2022/06/30 04:24:32;;;;;;;7.05;4.90;;;18.40;99.90;;;;;;5009474;28;20052;-66
2022/06/30 04:26:58;;;;;;;7.10;5.00;;;18.40;99.90;;;;;;5010155;28;20132;-67
2022/06/30 04:29:24;;;;;;;9.30;5.53;;;18.40;99.90;;;;;;5009267;28;20104;-67
2022/06/30 04:34:33;;;;;;;6.68;5.20;;;18.40;99.90;;;;;;5002997;28;20103;-66
2022/06/30 04:36:59;;;;;;;6.55;5.05;;;18.40;99.90;;;;;;5016494;28;20426;-66
2022/06/30 04:39:25;;;;;;;8.93;5.05;;;18.40;99.90;;;;;;5020656;28;20459;-66
2022/06/30 04:41:50;;;;;;;10.25;5.13;;;18.40;99.90;;;;;;5014304;28;20388;-66
2022/06/30 04:44:16;;;;;;;9.27;4.68;;;18.50;99.90;;;;;;5015611;28;20034;-66
2022/06/30 04:46:42;;;;;;;9.48;4.85;;;18.50;99.90;;;;;;5011396;28;20044;-67
2022/06/30 04:49:07;;;;;;;8.95;4.63;;;18.50;99.90;;;;;;5009821;28;20046;-66
2022/06/30 04:51:33;;;;;;;8.35;4.80;;;18.60;99.90;;;;;;5014673;28;20472;-67
2022/06/30 04:53:59;;;;;;;6.13;4.53;;;18.60;99.90;;;;;;5018131;28;20053;-67
2022/06/30 04:56:25;;;;;;;5.75;4.00;;;18.70;99.90;;;;;;5008357;28;20080;-67
2022/06/30 04:58:51;;;;;;;6.57;3.85;;;18.70;99.90;;;;;;5013493;28;20165;-67
2022/06/30 05:01:16;;;;;;;6.43;4.00;;;18.80;99.90;;;;;;5013984;28;20090;-66
2022/06/30 05:03:42;;;;;;;5.05;3.83;;;18.80;99.90;;;;;;5016889;28;20369;-66
2022/06/30 05:06:08;;;;;;;7.13;4.30;;;18.90;99.90;;;;;;5011931;28;20057;-67
2022/06/30 05:08:34;;;;;;;9.90;4.95;;;18.90;99.90;;;;;;5011350;28;20050;-67
2022/06/30 05:11:00;;;;;;;7.45;4.78;;;19.00;99.90;;;;;;5012534;28;20045;-66
2022/06/30 05:13:27;;;;;;;8.00;3.97;;;19.10;99.90;;;;;;5011026;28;20396;-67
2022/06/30 05:15:52;;;;;;;6.45;3.92;;;19.10;99.90;;;;;;5007857;28;20042;-66
2022/06/30 05:18:18;;;;;;;7.15;4.30;;;19.20;99.90;;;;;;5026592;28;20579;-65
2022/06/30 05:20:44;;;;;;;7.60;3.78;;;19.20;99.90;;;;;;5013878;28;20038;-65
2022/06/30 05:23:10;;;;;;;10.50;4.15;;;19.20;99.90;;;;;;5015134;28;20034;-65
2022/06/30 05:28:21;;;;;;;8.45;4.60;;;19.30;99.90;;;;;;5026934;28;20054;-65
2022/06/30 05:30:55;;;;;;;7.60;4.20;;;19.40;99.90;;;;;;5012559;28;20427;-66
2022/06/30 05:33:21;;;;;;;7.90;4.65;;;19.50;99.90;;;;;;5006903;28;20500;-66
2022/06/30 05:35:51;;;;;;;7.88;4.50;;;19.50;99.90;;;;;;5011200;28;20137;-65
2022/06/30 05:38:18;;;;;;;9.13;4.55;;;19.60;99.90;;;;;;5028188;28;20404;-65
2022/06/30 05:40:47;;;;;;;6.57;5.30;;;19.60;99.90;;;;;;5010067;28;20400;-66
2022/06/30 05:43:13;;;;;;;11.13;6.22;;;19.70;99.90;;;;;;5012568;28;20041;-66
2022/06/30 05:45:41;;;;;;;10.05;6.55;;;19.70;99.90;;;;;;5007629;28;20136;-66
2022/06/30 05:48:06;;;;;;;12.63;7.45;;;19.80;99.90;;;;;;5007553;28;20131;-66
2022/06/30 05:50:32;;;;;;;13.52;8.65;;;19.90;99.90;;;;;;5010589;28;20069;-66
2022/06/30 05:52:58;;;;;;;13.25;9.68;;;19.90;99.90;;;;;;5011964;28;20404;-67
2022/06/30 05:55:24;;;;;;;14.70;9.38;;;20.00;99.90;;;;;;5008569;28;20046;-66
2022/06/30 05:57:50;;;;;;;14.50;9.05;;;20.10;99.90;;;;;;5005356;28;20091;-66
2022/06/30 06:00:17;;;;;;;15.25;10.55;;;20.30;99.90;;;;;;5009406;28;20171;-66
2022/06/30 06:02:43;;;;;;;23.88;11.63;;;20.30;99.90;;;;;;5012452;28;20026;-66
2022/06/30 06:05:08;;;;;;;26.27;18.65;;;20.30;99.90;;;;;;5008149;28;20042;-66
2022/06/30 06:07:34;;;;;;;31.30;21.48;;;20.40;99.90;;;;;;5011842;28;20072;-65
2022/06/30 06:10:00;;;;;;;32.58;21.67;;;20.40;99.90;;;;;;5010818;28;20034;-65
2022/06/30 06:12:25;;;;;;;30.73;19.50;;;20.50;99.90;;;;;;5012328;28;20164;-66
2022/06/30 06:14:51;;;;;;;24.15;17.70;;;20.60;99.90;;;;;;5011086;28;20050;-66
2022/06/30 06:17:16;;;;;;;33.88;15.77;;;20.90;99.90;;;;;;5010874;28;20049;-66
2022/06/30 06:19:42;;;;;;;19.60;14.85;;;21.30;99.90;;;;;;5008592;28;20543;-66
2022/06/30 06:22:08;;;;;;;20.80;11.70;;;21.50;99.90;;;;;;5012652;28;20049;-66
2022/06/30 06:24:33;;;;;;;20.70;11.20;;;21.60;99.90;;;;;;5011488;28;20048;-66
2022/06/30 06:26:59;;;;;;;15.07;11.35;;;21.50;99.90;;;;;;5013117;28;20135;-66
2022/06/30 06:29:25;;;;;;;13.82;9.65;;;21.50;99.90;;;;;;5010756;28;20100;-67
2022/06/30 06:31:50;;;;;;;13.85;9.30;;;21.50;99.90;;;;;;5007597;28;20061;-66
2022/06/30 06:34:16;;;;;;;10.15;7.75;;;21.60;99.90;;;;;;5005490;28;20463;-66
2022/06/30 06:36:41;;;;;;;9.23;7.57;;;21.60;99.90;;;;;;5009162;28;20515;-67
2022/06/30 06:39:07;;;;;;;13.38;7.72;;;21.70;99.90;;;;;;5010028;28;20049;-66
2022/06/30 06:41:34;;;;;;;10.15;7.20;;;21.80;99.90;;;;;;5011264;28;20057;-66
2022/06/30 06:43:59;;;;;;;10.90;6.57;;;21.90;99.90;;;;;;5009060;28;20500;-66
2022/06/30 06:46:28;;;;;;;8.93;6.25;;;22.00;99.90;;;;;;5007286;28;20045;-68
2022/06/30 06:48:58;;;;;;;7.47;5.70;;;22.10;99.90;;;;;;5011621;28;20330;-67
2022/06/30 06:51:24;;;;;;;14.07;5.95;;;22.20;99.90;;;;;;5011812;28;20274;-67
2022/06/30 06:53:50;;;;;;;7.72;5.55;;;22.30;99.90;;;;;;5032514;28;20128;-67
2022/06/30 06:56:16;;;;;;;13.95;6.30;;;22.30;99.90;;;;;;5020557;28;20069;-67
2022/06/30 06:58:42;;;;;;;8.02;5.25;;;22.40;99.90;;;;;;5010195;28;20034;-67
2022/06/30 07:01:08;;;;;;;8.95;5.15;;;22.50;99.90;;;;;;5011540;28;20050;-66
2022/06/30 07:03:33;;;;;;;5.50;4.35;;;22.50;99.90;;;;;;5007231;28;20049;-69
2022/06/30 07:05:59;;;;;;;7.20;4.80;;;22.70;99.90;;;;;;5006971;28;20084;-67
2022/06/30 07:08:25;;;;;;;7.72;4.30;;;22.70;99.90;;;;;;5010715;28;20484;-67
2022/06/30 07:10:51;;;;;;;12.10;4.53;;;22.80;99.90;;;;;;5011139;28;20129;-66
2022/06/30 07:13:17;;;;;;;8.87;4.40;;;22.80;99.90;;;;;;5011087;28;20557;-66
2022/06/30 07:15:43;;;;;;;7.20;4.70;;;22.90;99.90;;;;;;5010010;28;20125;-66
2022/06/30 07:18:08;;;;;;;9.25;4.57;;;22.90;99.90;;;;;;5012440;28;20473;-66
2022/06/30 07:20:34;;;;;;;11.85;5.40;;;23.00;99.90;;;;;;5009596;28;20492;-68
2022/06/30 07:23:00;;;;;;;13.30;5.03;;;23.10;99.90;;;;;;5016168;28;20041;-66
2022/06/30 07:25:25;;;;;;;11.13;4.68;;;23.20;99.90;;;;;;5010211;28;20468;-65
2022/06/30 07:27:51;;;;;;;9.45;4.80;;;23.30;99.90;;;;;;5011745;28;20042;-67
2022/06/30 07:30:17;;;;;;;6.97;4.70;;;23.40;99.90;;;;;;5012158;28;20042;-66
2022/06/30 07:32:42;;;;;;;9.93;4.82;;;23.40;99.90;;;;;;5008527;28;20062;-66
2022/06/30 07:35:08;;;;;;;7.60;4.85;;;23.60;99.90;;;;;;5012120;28;20081;-64
2022/06/30 07:37:40;;;;;;;10.40;5.07;;;23.60;99.90;;;;;;5009130;28;20385;-66
2022/06/30 07:40:07;;;;;;;9.27;4.55;;;23.70;99.90;;;;;;5009793;28;20052;-67
2022/06/30 07:42:32;;;;;;;6.47;4.43;;;23.80;99.90;;;;;;5010984;28;20042;-66
2022/06/30 07:44:58;;;;;;;9.15;4.93;;;23.90;99.90;;;;;;5014064;28;20041;-67
2022/06/30 07:47:25;;;;;;;6.88;4.57;;;24.00;99.90;;;;;;5006362;28;20104;-67
2022/06/30 07:49:50;;;;;;;7.53;4.50;;;24.10;99.90;;;;;;5008967;28;20076;-68
2022/06/30 07:52:16;;;;;;;6.50;5.03;;;24.20;99.90;;;;;;5007994;28;20073;-67
2022/06/30 07:54:42;;;;;;;9.57;4.85;;;24.20;99.90;;;;;;5007392;28;20050;-67
2022/06/30 07:57:07;;;;;;;7.40;4.70;;;24.30;99.90;;;;;;5011093;28;20564;-66
2022/06/30 07:59:33;;;;;;;11.68;5.03;;;24.40;99.90;;;;;;5013041;28;20380;-67
2022/06/30 08:02:00;;;;;;;6.70;5.13;;;24.40;99.90;;;;;;5009703;28;20068;-66
2022/06/30 08:04:26;;;;;;;7.88;4.97;;;24.50;99.90;;;;;;5006388;28;20057;-67
2022/06/30 08:06:52;;;;;;;6.97;4.90;;;24.60;99.90;;;;;;5009101;28;20038;-68
2022/06/30 08:09:19;;;;;;;9.60;5.03;;;24.70;99.90;;;;;;5011560;28;20049;-67
2022/06/30 08:11:44;;;;;;;7.72;4.93;;;24.80;99.90;;;;;;5010229;28;20034;-67
2022/06/30 08:14:10;;;;;;;6.00;4.57;;;24.90;99.90;;;;;;5011881;28;20057;-67
2022/06/30 08:16:36;;;;;;;8.75;4.95;;;25.00;99.90;;;;;;5012631;28;20040;-68
2022/06/30 08:19:03;;;;;;;8.50;5.25;;;25.10;99.90;;;;;;5020819;28;20416;-67
2022/06/30 08:21:29;;;;;;;8.38;5.15;;;25.20;99.90;;;;;;5004764;28;20393;-67
2022/06/30 08:23:55;;;;;;;7.13;5.45;;;25.30;99.90;;;;;;5009113;28;20628;-67
2022/06/30 08:26:21;;;;;;;9.00;5.13;;;25.30;99.90;;;;;;5017828;28;20073;-67
2022/06/30 08:28:47;;;;;;;8.38;5.88;;;25.30;99.90;;;;;;5005223;28;20125;-66
2022/06/30 08:31:12;;;;;;;13.95;5.32;;;25.40;99.90;;;;;;5008524;28;20034;-68
2022/06/30 08:33:38;;;;;;;6.93;5.55;;;25.50;99.90;;;;;;5008978;28;20592;-66
2022/06/30 08:36:04;;;;;;;6.10;5.47;;;25.60;99.90;;;;;;5018516;28;20042;-67
2022/06/30 08:38:30;;;;;;;8.32;5.57;;;25.70;99.90;;;;;;5010788;28;20505;-67
2022/06/30 08:43:43;;;;;;;7.50;6.20;;;25.80;99.90;;;;;;5008337;28;20129;-67
2022/06/30 08:46:10;;;;;;;;;;;25.90;99.90;;;;;;5012209;28;20048;-67
2022/06/30 08:48:36;;;;;;;7.85;5.93;;;25.90;99.90;;;;;;5009546;28;19983;-67
2022/06/30 08:51:05;;;;;;;9.13;6.00;;;26.00;99.90;;;;;;5008722;28;20042;-68
2022/06/30 08:53:45;;;;;;;8.75;5.65;;;26.10;99.90;;;;;;5022264;28;20046;-67
2022/06/30 08:56:12;;;;;;;10.60;5.78;;;26.20;99.90;;;;;;5010194;28;20046;-66
2022/06/30 08:58:38;;;;;;;7.90;5.97;;;26.40;99.90;;;;;;5021916;28;20068;-67
2022/06/30 09:01:05;;;;;;;9.57;4.78;;;26.50;99.90;;;;;;5008086;28;20641;-66
2022/06/30 09:03:32;;;;;;;8.45;5.68;;;26.60;99.90;;;;;;5002213;28;20050;-67
2022/06/30 09:05:58;;;;;;;9.13;5.13;;;26.70;99.90;;;;;;5005952;28;20137;-67
2022/06/30 09:08:25;;;;;;;9.27;5.97;;;26.90;99.90;;;;;;5008168;28;20485;-67
2022/06/30 09:10:53;;;;;;;10.27;5.53;;;27.00;99.80;;;;;;5005597;28;20056;-67
2022/06/30 09:13:20;;;;;;;7.70;5.40;;;27.10;99.50;;;;;;5007843;28;20050;-68
2022/06/30 09:15:50;;;;;;;7.70;5.75;;;27.30;99.40;;;;;;5006626;28;20048;-67
2022/06/30 09:18:23;;;;;;;16.83;6.37;;;27.20;99.10;;;;;;4986582;28;20128;-67
2022/06/30 09:20:51;;;;;;;7.75;5.30;;;27.20;99.00;;;;;;5013293;28;20050;-67
2022/06/30 09:23:28;;;;;;;7.80;5.53;;;27.30;99.10;;;;;;5003218;28;20042;-66
2022/06/30 09:25:59;;;;;;;7.57;5.68;;;27.40;98.70;;;;;;5009380;28;20524;-66
2022/06/30 09:28:47;;;;;;;8.45;5.50;;;27.60;99.00;;;;;;5006167;28;20073;-67
2022/06/30 09:31:35;;;;;;;7.38;6.10;;;27.80;98.40;;;;;;5004694;28;20151;-67
2022/06/30 09:34:19;;;;;;;7.88;5.43;;;27.80;98.10;;;;;;5001591;28;20125;-65
2022/06/30 09:36:54;;;;;;;7.43;5.60;;;28.00;97.90;;;;;;5006943;28;20184;-66
2022/06/30 09:39:21;;;;;;;8.43;5.63;;;28.00;98.50;;;;;;5026394;28;20046;-66
2022/06/30 09:41:49;;;;;;;9.82;5.32;;;28.10;98.00;;;;;;5000525;28;20077;-67
2022/06/30 09:44:18;;;;;;;;;;;28.20;98.00;;;;;;5013605;28;20041;-66
2022/06/30 09:47:03;;;;;;;10.68;5.57;;;28.30;97.50;;;;;;5009713;28;19929;-66
2022/06/30 09:49:30;;;;;;;8.30;5.65;;;28.40;97.90;;;;;;5009605;28;20133;-65
2022/06/30 09:51:56;;;;;;;8.80;6.05;;;28.50;97.30;;;;;;5001086;28;20088;-66
2022/06/30 09:54:22;;;;;;;13.88;6.22;;;28.50;96.90;;;;;;5002420;28;20473;-66
2022/06/30 09:57:06;;;;;;;11.73;6.38;;;28.60;96.80;;;;;;5011976;28;20050;-66
2022/06/30 09:59:36;;;;;;;9.98;6.70;;;28.70;96.40;;;;;;5017842;28;20125;-67
2022/06/30 10:02:06;;;;;;;8.57;6.05;;;28.70;96.40;;;;;;5013926;28;20149;-67
2022/06/30 10:04:56;;;;;;;10.30;6.00;;;28.70;96.40;;;;;;5014509;28;20084;-65
2022/06/30 10:07:22;;;;;;;7.47;6.47;;;28.80;96.20;;;;;;5011648;28;20050;-67
2022/06/30 10:09:51;;;;;;;7.35;6.55;;;28.80;96.10;;;;;;5012943;28;20053;-66
2022/06/30 10:12:22;;;;;;;8.43;6.13;;;28.90;95.00;;;;;;4994723;28;20038;-67
2022/06/30 10:14:53;;;;;;;6.47;5.68;;;29.10;95.30;;;;;;5013670;28;20081;-67
2022/06/30 10:17:27;;;;;;;9.18;5.60;;;29.20;95.20;;;;;;5027363;28;20129;-66
2022/06/30 10:19:54;;;;;;;10.13;6.40;;;29.40;95.30;;;;;;5024410;28;20041;-67
2022/06/30 10:22:22;;;;;;;7.72;5.75;;;29.60;95.00;;;;;;5013813;28;20065;-65
2022/06/30 10:24:50;;;;;;;7.38;5.95;;;29.80;94.90;;;;;;5015205;28;20038;-67
2022/06/30 10:27:17;;;;;;;7.13;5.65;;;30.00;94.30;;;;;;5010495;28;20041;-66
2022/06/30 10:30:09;;;;;;;7.93;5.75;;;30.10;94.30;;;;;;5024388;28;20403;-66
2022/06/30 10:32:55;;;;;;;10.23;7.15;;;30.30;93.90;;;;;;4992408;28;20049;-66
2022/06/30 10:35:27;;;;;;;11.77;7.00;;;30.40;92.90;;;;;;5007738;28;20053;-67
2022/06/30 10:38:22;;;;;;;9.82;6.93;;;30.50;92.40;;;;;;5008839;28;20061;-66
2022/06/30 10:41:11;;;;;;;8.95;6.63;;;30.40;92.20;;;;;;5006769;28;20046;-67
2022/06/30 10:44:05;;;;;;;7.80;6.35;;;30.00;91.70;;;;;;5008406;28;20141;-68
2022/06/30 10:46:49;;;;;;;8.63;6.63;;;29.70;91.90;;;;;;5018396;28;20120;-67
2022/06/30 10:49:15;;;;;;;7.30;6.40;;;29.70;91.60;;;;;;5004591;28;20100;-68
2022/06/30 10:51:42;;;;;;;9.13;6.07;;;29.70;91.50;;;;;;5004360;28;20038;-67
2022/06/30 10:54:08;;;;;;;7.80;6.50;;;29.90;92.40;;;;;;5014654;28;20046;-66
2022/06/30 10:56:49;;;;;;;10.20;7.13;;;29.90;92.00;;;;;;5010784;28;20131;-65
2022/06/30 10:59:16;;;;;;;7.63;6.50;;;29.90;90.60;;;;;;5011257;28;20050;-66
2022/06/30 11:02:07;;;;;;;6.93;5.88;;;29.60;90.90;;;;;;5006583;28;20128;-66
2022/06/30 11:04:34;;;;;;;8.23;5.65;;;29.50;91.70;;;;;;5011070;28;20058;-66
2022/06/30 11:07:24;;;;;;;7.60;6.40;;;29.30;92.20;;;;;;5007385;28;20061;-68
2022/06/30 11:09:50;;;;;;;10.20;6.40;;;29.20;92.00;;;;;;5003118;28;20128;-66
2022/06/30 11:12:19;;;;;;;14.20;6.15;;;29.10;92.30;;;;;;5008228;28;20124;-67
2022/06/30 11:14:53;;;;;;;8.57;6.50;;;29.10;92.50;;;;;;5013783;28;20558;-67
2022/06/30 11:17:24;;;;;;;16.50;6.57;;;29.30;92.40;;;;;;5002460;28;20046;-67
2022/06/30 11:20:07;;;;;;;10.98;6.65;;;29.30;92.00;;;;;;5007281;28;20405;-68
2022/06/30 11:22:34;;;;;;;7.70;6.03;;;29.10;91.10;;;;;;5009048;28;20215;-66
2022/06/30 11:25:06;;;;;;;9.60;5.78;;;28.90;91.70;;;;;;5006278;28;20886;-66
2022/06/30 11:27:33;;;;;;;8.95;6.82;;;28.70;92.30;;;;;;5004617;28;20412;-67
2022/06/30 11:30:02;;;;;;;9.05;6.20;;;28.40;92.50;;;;;;5002807;28;20133;-68
2022/06/30 11:32:28;;;;;;;8.10;7.30;;;28.30;92.80;;;;;;5010834;28;20053;-67
2022/06/30 11:34:56;;;;;;;11.07;7.90;;;28.10;92.80;;;;;;5008348;28;20048;-68
2022/06/30 11:37:23;;;;;;;28.55;13.90;;;27.90;93.20;;;;;;5008438;28;20574;-68
2022/06/30 11:40:17;;;;;;;40.88;18.30;;;27.60;97.50;;;;;;5011822;28;20033;-70
2022/06/30 11:42:43;;;;;;;52.45;22.05;;;26.90;99.90;;;;;;5022530;28;20093;-71
2022/06/30 11:45:41;;;;;;;21.17;14.88;;;26.40;99.90;;;;;;5018114;28;20139;-70
2022/06/30 11:48:07;;;;;;;27.77;18.13;;;25.90;99.90;;;;;;5004363;28;20070;-71
2022/06/30 11:50:32;;;;;;;25.27;17.95;;;25.50;99.90;;;;;;4999150;28;20042;-70
2022/06/30 11:53:00;;;;;;;22.80;17.48;;;25.40;99.90;;;;;;5015723;28;20045;-69
2022/06/30 11:55:28;;;;;;;20.23;17.75;;;25.20;99.90;;;;;;5014403;28;20045;-70
2022/06/30 11:57:54;;;;;;;20.27;16.40;;;25.10;99.90;;;;;;5014603;28;20605;-71
2022/06/30 12:00:24;;;;;;;19.95;15.85;;;25.00;99.90;;;;;;5009551;28;20038;-71
2022/06/30 12:02:53;;;;;;;20.65;15.45;;;24.90;99.90;;;;;;5013995;28;20118;-68
2022/06/30 12:05:21;;;;;;;26.75;17.20;;;24.70;99.90;;;;;;5007701;28;20496;-69
2022/06/30 12:07:50;;;;;;;18.63;15.68;;;24.40;99.90;;;;;;5007815;28;20272;-70
2022/06/30 12:10:21;;;;;;;18.58;15.88;;;24.20;99.90;;;;;;5012002;28;20043;-70
2022/06/30 12:12:50;;;;;;;18.50;15.70;;;24.00;99.90;;;;;;5006053;28;20081;-68
2022/06/30 12:15:18;;;;;;;20.15;16.20;;;23.80;99.90;;;;;;5005912;28;20096;-68
2022/06/30 12:17:56;;;;;;;17.30;15.50;;;23.60;99.90;;;;;;5004490;28;20618;-68
2022/06/30 12:20:26;;;;;;;18.95;16.80;;;23.40;99.90;;;;;;5003224;28;20466;-68
2022/06/30 12:22:53;;;;;;;19.42;17.52;;;23.30;99.90;;;;;;5003333;28;20058;-67
2022/06/30 12:25:20;;;;;;;19.80;16.02;;;23.20;99.90;;;;;;4989558;28;20085;-69
2022/06/30 12:27:51;;;;;;;16.20;14.13;;;23.20;99.90;;;;;;4986579;28;20114;-68
2022/06/30 12:30:18;;;;;;;13.63;12.23;;;23.20;99.90;;;;;;4998029;28;20125;-68
2022/06/30 12:32:53;;;;;;;18.00;14.50;;;23.20;99.90;;;;;;5006005;28;20065;-68
2022/06/30 12:35:22;;;;;;;15.00;13.13;;;23.30;99.90;;;;;;5006442;28;20076;-69
2022/06/30 12:37:48;;;;;;;13.63;12.20;;;23.30;99.90;;;;;;4991341;28;20153;-68
2022/06/30 12:40:21;;;;;;;12.57;11.23;;;23.30;99.90;;;;;;5005715;28;20524;-68
2022/06/30 12:42:49;;;;;;;13.60;12.27;;;23.40;99.90;;;;;;5007876;28;20116;-69
2022/06/30 12:45:45;;;;;;;13.18;11.80;;;23.50;99.90;;;;;;4991215;28;20053;-68
2022/06/30 12:48:31;;;;;;;14.40;12.90;;;23.70;99.90;;;;;;5001031;28;20057;-69
2022/06/30 12:50:56;;;;;;;11.80;10.60;;;23.80;99.90;;;;;;5006821;28;20046;-69
2022/06/30 12:53:25;;;;;;;12.57;11.18;;;23.90;99.90;;;;;;5002729;28;20108;-68
2022/06/30 12:56:03;;;;;;;13.57;11.30;;;23.80;99.90;;;;;;4994682;28;20080;-69
2022/06/30 12:58:44;;;;;;;15.13;12.50;;;23.80;99.90;;;;;;5013322;28;20050;-68